MOL Magnificence — V7SG5 — position and weather

sailwx.info

Track history (hours):
 
Tides and Currents Weather Stations Pressure Air Temp Water Temp Dewpoint Dewpoint Depression Visibility Wind Speed Wind Dir Waves Ship Positions

MOL Magnificence

Last reported at 2017-Oct-13 13:32 UTC. Time now 2017-Oct-18 18:28 UTC.
Position N 28°35' W 119°47'.

Length 302 m; draft 13.2 m.

Type: Cargo ship. MMSI: 538003648.

Date/timePositionNaut miles runAvg speedWind from/ knotsBaromVisibWave heightAir tempDewpointWater temp
2017-Oct-13 13:32N 28°35' W 119°47'221.5
2017-Oct-13 13:26N 28°36' W 119°49'1021.5
2017-Oct-13 12:57N 28°42' W 119°59'1321.3
2017-Oct-13 12:21N 28°50' W 120°10'821.2
2017-Oct-13 12:00N 28°54' W 120°18'2021.1
2017-Oct-13 11:02N 29°06' W 120°36'3121.3
2017-Oct-13 09:34N 29°25' W 121°05'621.5
2017-Oct-13 09:19N 29°28' W 121°10'1621.3
2017-Oct-13 08:33N 29°38' W 121°25'220.9
2017-Oct-13 08:28N 29°39' W 121°27'4321.2
2017-Oct-13 06:26N 30°04' W 122°07'1821.1
2017-Oct-13 05:35N 30°14' W 122°24'  
2017-Oct-03 15:07N 34°53' E 140°08'420.9
2017-Oct-03 14:56N 34°51' E 140°04'1718.9
2017-Oct-03 14:00N 34°51' E 139°43'  
Track history (hours):
 
Tides and Currents Weather Stations Pressure Air Temp Water Temp Dewpoint Dewpoint Depression Visibility Wind Speed Wind Dir Waves Ship Positions

MOL Magnificence

Last reported at 2017-Oct-13 13:32 UTC. Time now 2017-Oct-18 18:28 UTC.
Position N 28°35' W 119°47'.

Length 302 m; draft 13.2 m.

Type: Cargo ship. MMSI: 538003648.

Date/timePositionNaut miles runAvg speedWind from/ knotsBaromVisibWave heightAir tempDewpointWater temp
2017-Oct-13 13:32N 28°35' W 119°47'221.5
2017-Oct-13 13:26N 28°36' W 119°49'1021.5
2017-Oct-13 12:57N 28°42' W 119°59'1321.3
2017-Oct-13 12:21N 28°50' W 120°10'821.2
2017-Oct-13 12:00N 28°54' W 120°18'2021.1
2017-Oct-13 11:02N 29°06' W 120°36'3121.3
2017-Oct-13 09:34N 29°25' W 121°05'621.5
2017-Oct-13 09:19N 29°28' W 121°10'1621.3
2017-Oct-13 08:33N 29°38' W 121°25'220.9
2017-Oct-13 08:28N 29°39' W 121°27'4321.2
2017-Oct-13 06:26N 30°04' W 122°07'1821.1
2017-Oct-13 05:35N 30°14' W 122°24'  
2017-Oct-03 15:07N 34°53' E 140°08'420.9
2017-Oct-03 14:56N 34°51' E 140°04'1718.9
2017-Oct-03 14:00N 34°51' E 139°43'  

Dump ship's entire track history